Time;durP1;ratioP1;P1;durP2;ratioP2;P2;SDS_P1;SDS_P2;PMS_P1;PMS_P2;Temp;Humidity;BMP_temperature;BMP_pressure;BME280_temperature;BME280_humidity;BME280_pressure;Samples;Min_cycle;Max_cycle;Signal;HPM_P1;HPM_P2
2023/09/19 00:01:00;;;;;;;;;;;;;;;20.48;73.59;100173.88;4229965;28;20010;-72
2023/09/19 00:03:04;;;;;;;;;;;;;;;20.47;73.67;100185.91;4229009;28;20019;-72
2023/09/19 00:05:05;;;;;;;;;;;;;;;20.45;73.40;100174.38;4231098;28;20015;-70
2023/09/19 00:07:08;;;;;;;;;;;;;;;20.43;73.84;100171.09;4231439;28;20018;-71
2023/09/19 00:09:11;;;;;;;;;;;;;;;20.42;73.79;100183.94;4231553;28;20015;-71
2023/09/19 00:11:14;;;;;;;;;;;;;;;20.41;73.61;100176.00;4228726;28;20023;-71
2023/09/19 00:13:16;;;;;;;;;;;;;;;20.41;73.45;100176.00;4231526;28;20042;-71
2023/09/19 00:15:17;;;;;;;;;;;;;;;20.41;73.44;100170.53;4232066;28;20054;-71
2023/09/19 00:17:21;;;;;;;;;;;;;;;20.40;73.31;100174.34;4231040;28;20011;-71
2023/09/19 00:19:23;;;;;;;;;;;;;;;20.39;73.57;100168.03;4230161;28;20014;-72
2023/09/19 00:21:26;;;;;;;;;;;;;;;20.40;73.34;100166.94;4230783;28;20373;-70
2023/09/19 00:23:28;;;;;;;;;;;;;;;20.42;73.08;100172.97;4231103;28;20027;-69
2023/09/19 00:25:32;;;;;;;;;;;;;;;20.45;72.85;100175.22;4231677;28;20018;-69
2023/09/19 00:27:33;;;;;;;;;;;;;;;20.45;72.89;100174.38;4230841;28;20030;-70
2023/09/19 00:29:36;;;;;;;;;;;;;;;20.45;72.89;100174.38;4230896;28;20454;-70
2023/09/19 00:31:39;;;;;;;;;;;;;;;20.44;72.96;100176.31;4237674;27;19974;-70
2023/09/19 00:33:42;;;;;;;;;;;;;;;20.41;72.99;100170.53;4227626;28;20429;-70
2023/09/19 00:35:47;;;;;;;;;;;;;;;20.41;72.87;100170.53;4230372;28;20006;-70
2023/09/19 00:37:49;;;;;;;;;;;;;;;20.38;73.20;100171.84;4229686;28;20022;-70
2023/09/19 00:39:52;;;;;;;;;;;;;;;20.34;73.29;100173.44;4230050;27;20014;-72
2023/09/19 00:41:54;;;;;;;;;;;;;;;20.32;73.21;100173.69;4230400;28;20015;-69
2023/09/19 00:43:59;;;;;;;;;;;;;;;20.32;73.38;100172.88;4229653;28;20031;-70
2023/09/19 00:46:02;;;;;;;;;;;;;;;20.28;73.25;100169.81;4238011;27;20385;-68
2023/09/19 00:48:10;;;;;;;;;;;;;;;20.28;73.13;100160.75;4230498;28;20015;-68
2023/09/19 00:50:14;;;;;;;;;;;;;;;20.26;73.30;100162.94;4220564;28;20019;-68
2023/09/19 00:52:19;;;;;;;;;;;;;;;20.26;73.27;100169.22;4227945;28;20007;-68
2023/09/19 00:54:21;;;;;;;;;;;;;;;20.26;73.46;100174.72;4230216;28;20372;-68
2023/09/19 00:56:23;;;;;;;;;;;;;;;20.23;73.42;100160.69;4230812;28;20026;-69
2023/09/19 00:58:24;;;;;;;;;;;;;;;20.21;73.46;100171.09;4230230;28;20054;-69
2023/09/19 01:00:26;;;;;;;;;;;;;;;20.20;73.39;100166.69;4229382;28;20010;-70
2023/09/19 01:02:29;;;;;;;;;;;;;;;20.16;73.25;100175.41;4229368;28;20031;-70
2023/09/19 01:04:32;;;;;;;;;;;;;;;20.14;73.43;100171.25;4230197;28;20031;-69
2023/09/19 01:06:36;;;;;;;;;;;;;;;20.10;73.65;100173.69;4230592;28;19931;-69
2023/09/19 01:08:39;;;;;;;;;;;;;;;20.09;73.50;100162.97;4228465;28;20394;-70
2023/09/19 01:10:44;;;;;;;;;;;;;;;20.09;73.41;100165.72;4230209;28;20035;-71
2023/09/19 01:12:48;;;;;;;;;;;;;;;20.06;73.56;100166.22;4229410;28;20035;-69
2023/09/19 01:14:55;;;;;;;;;;;;;;;20.04;73.75;100176.63;4228573;28;20023;-70
2023/09/19 01:16:58;;;;;;;;;;;;;;;20.04;73.50;100168.41;4230319;28;20424;-70
2023/09/19 01:19:03;;;;;;;;;;;;;;;20.02;73.87;100174.13;4230508;28;20417;-69
2023/09/19 01:21:06;;;;;;;;;;;;;;;20.01;73.78;100177.97;4229374;28;21342;-69
2023/09/19 01:23:14;;;;;;;;;;;;;;;19.99;73.75;100174.66;4227779;28;20014;-71
2023/09/19 01:25:20;;;;;;;;;;;;;;;19.98;73.63;100172.97;4230124;28;20362;-69
2023/09/19 01:27:43;;;;;;;;;;;;;;;19.97;73.70;100171.34;4220982;28;19931;-69
2023/09/19 01:29:44;;;;;;;;;;;;;;;19.94;73.80;100175.41;4228796;28;20022;-69
2023/09/19 01:31:47;;;;;;;;;;;;;;;19.94;73.89;100175.41;4227349;28;20025;-69
2023/09/19 01:33:57;;;;;;;;;;;;;;;19.91;73.87;100175.09;4210516;28;20023;-69
2023/09/19 01:35:59;;;;;;;;;;;;;;;19.89;74.02;100171.75;4228352;28;20014;-70
2023/09/19 01:38:03;;;;;;;;;;;;;;;19.87;74.11;100176.66;4227880;28;20023;-69
2023/09/19 01:40:14;;;;;;;;;;;;;;;19.84;74.21;100179.91;4228060;28;20363;-70
2023/09/19 01:42:19;;;;;;;;;;;;;;;19.80;74.05;100177.69;4219943;28;20030;-69
2023/09/19 01:44:23;;;;;;;;;;;;;;;19.77;74.37;100174.63;4229762;28;20027;-69
2023/09/19 01:46:25;;;;;;;;;;;;;;;19.75;74.40;100180.31;4229741;28;20361;-69
2023/09/19 01:48:31;;;;;;;;;;;;;;;19.75;74.33;100185.78;4228212;28;19930;-69
2023/09/19 01:50:36;;;;;;;;;;;;;;;19.74;74.39;100184.13;4228265;28;20022;-68
2023/09/19 01:52:42;;;;;;;;;;;;;;;19.72;74.49;100174.53;4227245;28;20018;-68
2023/09/19 01:54:47;;;;;;;;;;;;;;;19.73;74.48;100176.16;4229731;28;20461;-70
2023/09/19 01:56:49;;;;;;;;;;;;;;;19.74;74.34;100184.13;4228211;28;20361;-69
2023/09/19 01:58:52;;;;;;;;;;;;;;;19.73;74.63;100181.63;4227427;28;20015;-69
2023/09/19 02:00:54;;;;;;;;;;;;;;;19.72;74.44;100180.81;4220121;28;20360;-68
2023/09/19 02:02:58;;;;;;;;;;;;;;;19.71;74.50;100181.88;4228078;28;20370;-69
2023/09/19 02:05:01;;;;;;;;;;;;;;;19.70;74.24;100183.00;4228766;28;20050;-70
2023/09/19 02:07:05;;;;;;;;;;;;;;;19.70;74.67;100187.63;4227753;27;20504;-70
2023/09/19 02:09:08;;;;;;;;;;;;;;;19.71;74.49;100186.56;4229570;28;20031;-69
2023/09/19 02:11:10;;;;;;;;;;;;;;;19.69;74.58;100192.28;4228366;28;20030;-70
2023/09/19 02:13:13;;;;;;;;;;;;;;;19.68;74.51;100193.34;4219233;28;20358;-71
2023/09/19 02:15:16;;;;;;;;;;;;;;;19.66;74.92;100197.44;4229912;28;20445;-70
2023/09/19 02:17:19;;;;;;;;;;;;;;;19.63;74.67;100188.63;4229072;28;20401;-69
2023/09/19 02:19:21;;;;;;;;;;;;;;;19.61;74.99;100188.06;4225812;28;20057;-70
2023/09/19 02:21:24;;;;;;;;;;;;;;;19.59;75.22;100197.59;4226388;28;20026;-69
2023/09/19 02:23:27;;;;;;;;;;;;;;;19.57;75.07;100194.28;4227020;28;20027;-70
2023/09/19 02:25:30;;;;;;;;;;;;;;;19.55;75.21;100197.28;4226718;28;19977;-69
2023/09/19 02:27:32;;;;;;;;;;;;;;;19.52;75.24;100192.28;4226695;28;20015;-69
2023/09/19 02:29:35;;;;;;;;;;;;;;;19.50;75.48;100196.34;4229144;28;20051;-68
2023/09/19 02:31:37;;;;;;;;;;;;;;;19.50;75.66;100207.31;4227804;28;20453;-71
2023/09/19 02:33:39;;;;;;;;;;;;;;;19.47;75.74;100202.31;4228882;28;20015;-69
2023/09/19 02:35:42;;;;;;;;;;;;;;;19.43;75.68;100199.25;4219805;28;20377;-68
2023/09/19 02:37:46;;;;;;;;;;;;;;;19.40;75.68;100197.03;4228776;28;20031;-68
2023/09/19 02:39:47;;;;;;;;;;;;;;;19.37;75.90;100195.63;4226814;28;20007;-69
2023/09/19 02:41:49;;;;;;;;;;;;;;;19.36;75.95;100196.69;4228637;28;20022;-69
2023/09/19 02:43:52;;;;;;;;;;;;;;;19.33;76.19;100199.13;4228398;28;20027;-69
2023/09/19 02:45:54;;;;;;;;;;;;;;;19.32;75.64;100200.19;4224629;28;20023;-69
2023/09/19 02:47:56;;;;;;;;;;;;;;;19.30;76.08;100205.91;4226794;28;20026;-69
2023/09/19 02:49:59;;;;;;;;;;;;;;;19.29;76.01;100203.41;4228162;28;19927;-69
2023/09/19 02:52:01;;;;;;;;;;;;;;;19.28;76.12;100213.53;4228308;28;19928;-69
2023/09/19 02:54:04;;;;;;;;;;;;;;;19.25;76.21;100214.84;4228373;28;20015;-70
2023/09/19 02:56:07;;;;;;;;;;;;;;;19.24;76.18;100228.78;4218922;28;20007;-70
2023/09/19 02:58:11;;;;;;;;;;;;;;;19.24;76.25;100226.88;4227491;28;20429;-68
2023/09/19 03:00:13;;;;;;;;;;;;;;;19.23;76.14;100227.13;4217940;28;20018;-69
2023/09/19 03:02:16;;;;;;;;;;;;;;;19.22;76.35;100230.97;4224751;28;20027;-70
2023/09/19 03:04:19;;;;;;;;;;;;;;;19.22;76.21;100241.91;4228734;28;20434;-70
2023/09/19 03:06:23;;;;;;;;;;;;;;;19.22;76.06;100231.78;4219350;28;20018;-69
2023/09/19 03:08:26;;;;;;;;;;;;;;;19.22;75.94;100230.97;4235940;27;20476;-68
2023/09/19 03:10:30;;;;;;;;;;;;;;;19.22;75.91;100231.78;4235269;27;19930;-70
2023/09/19 03:12:33;;;;;;;;;;;;;;;19.22;76.00;100234.50;4225737;28;20010;-68
2023/09/19 03:14:35;;;;;;;;;;;;;;;19.19;76.57;100235.00;4218929;28;20014;-70
2023/09/19 03:16:38;;;;;;;;;;;;;;;19.17;76.31;100239.91;4226560;28;20014;-69
2023/09/19 03:18:41;;;;;;;;;;;;;;;19.15;76.40;100238.47;4225408;28;20041;-70
2023/09/19 03:20:44;;;;;;;;;;;;;;;19.12;76.72;100236.22;4225898;28;20119;-69
2023/09/19 03:22:46;;;;;;;;;;;;;;;19.11;76.93;100237.31;4225367;28;20021;-69
2023/09/19 03:24:48;;;;;;;;;;;;;;;19.09;76.85;100237.56;4226701;28;20370;-70
2023/09/19 03:26:52;;;;;;;;;;;;;;;19.07;76.79;100239.72;4226485;28;20136;-70
2023/09/19 03:28:55;;;;;;;;;;;;;;;19.06;76.79;100238.06;4218821;28;20015;-70
2023/09/19 03:31:00;;;;;;;;;;;;;;;19.07;76.88;100240.56;4224259;28;20030;-70
2023/09/19 03:33:04;;;;;;;;;;;;;;;19.07;76.58;100232.34;4217959;28;20075;-70
2023/09/19 03:35:07;;;;;;;;;;;;;;;19.08;76.73;100241.38;4226678;28;20019;-70
2023/09/19 03:37:09;;;;;;;;;;;;;;;19.06;76.24;100236.16;4224387;28;20413;-70
2023/09/19 03:39:12;;;;;;;;;;;;;;;19.07;76.45;100240.56;4226257;28;20019;-70
2023/09/19 03:41:17;;;;;;;;;;;;;;;19.08;76.42;100246.84;4233756;28;20026;-69
2023/09/19 03:43:19;;;;;;;;;;;;;;;19.07;76.34;100245.19;4226730;28;20020;-69
2023/09/19 03:45:21;;;;;;;;;;;;;;;19.08;76.53;100241.38;4236105;28;20018;-69
2023/09/19 03:47:25;;;;;;;;;;;;;;;19.08;76.61;100255.06;4218486;28;20372;-69
2023/09/19 03:49:28;;;;;;;;;;;;;;;19.07;76.62;100254.25;4217625;28;20079;-71
2023/09/19 03:51:31;;;;;;;;;;;;;;;19.07;76.71;100256.97;4218420;28;19954;-69
2023/09/19 03:53:33;;;;;;;;;;;;;;;19.05;76.86;100256.38;4225817;28;20445;-69
2023/09/19 03:55:35;;;;;;;;;;;;;;;19.05;76.80;100261.84;4219131;28;20844;-69
2023/09/19 03:57:37;;;;;;;;;;;;;;;19.05;76.71;100264.59;4219045;28;20015;-69
2023/09/19 03:59:42;;;;;;;;;;;;;;;19.05;76.45;100271.97;4224872;28;20022;-69
2023/09/19 04:01:46;;;;;;;;;;;;;;;19.05;76.01;100274.72;4216614;28;20022;-70
2023/09/19 04:03:50;;;;;;;;;;;;;;;19.05;75.62;100270.06;4227204;28;20018;-69
2023/09/19 04:05:52;;;;;;;;;;;;;;;19.06;75.25;100269.00;4234256;28;20023;-69
2023/09/19 04:07:54;;;;;;;;;;;;;;;19.05;75.00;100264.59;4222988;28;20022;-70
2023/09/19 04:09:56;;;;;;;;;;;;;;;19.07;74.59;100267.94;4217799;28;20063;-69
2023/09/19 04:11:58;;;;;;;;;;;;;;;19.09;74.56;100271.25;4224291;28;20007;-69
2023/09/19 04:14:00;;;;;;;;;;;;;;;19.11;73.99;100265.53;4227677;28;20023;-71
2023/09/19 04:16:04;;;;;;;;;;;;;;;19.11;73.86;100270.16;4222839;28;20034;-69
2023/09/19 04:18:06;;;;;;;;;;;;;;;19.13;73.52;100274.31;4217455;28;20019;-69
2023/09/19 04:20:08;;;;;;;;;;;;;;;19.15;73.58;100279.53;4216967;28;20031;-69
2023/09/19 04:22:11;;;;;;;;;;;;;;;19.15;73.29;100276.81;4226484;28;20358;-69
2023/09/19 04:24:14;;;;;;;;;;;;;;;19.13;73.17;100279.78;4225852;28;20432;-69
2023/09/19 04:26:17;;;;;;;;;;;;;;;19.13;72.98;100279.78;4227899;28;20448;-69
2023/09/19 04:28:19;;;;;;;;;;;;;;;19.13;73.15;100288.00;4235297;28;20046;-68
2023/09/19 04:30:21;;;;;;;;;;;;;;;19.09;73.11;100290.41;4226870;28;20030;-68
2023/09/19 04:32:24;;;;;;;;;;;;;;;19.10;73.23;100285.75;4225993;28;19928;-68
2023/09/19 04:34:27;;;;;;;;;;;;;;;19.09;73.02;100295.06;4226647;28;20023;-68
2023/09/19 04:36:29;;;;;;;;;;;;;;;19.09;73.10;100298.63;4226331;28;20508;-69
2023/09/19 04:38:31;;;;;;;;;;;;;;;19.11;72.96;100294.78;4227350;28;20031;-68
2023/09/19 04:40:33;;;;;;;;;;;;;;;19.13;73.04;100303.59;4226024;28;20027;-69
2023/09/19 04:42:35;;;;;;;;;;;;;;;19.11;72.94;100308.47;4226474;28;20456;-68
2023/09/19 04:44:38;;;;;;;;;;;;;;;19.12;72.96;100307.41;4227338;28;20026;-69
2023/09/19 04:46:40;;;;;;;;;;;;;;;19.13;72.56;100303.59;4227675;28;20010;-69
2023/09/19 04:48:43;;;;;;;;;;;;;;;19.13;72.75;100320.84;4227884;27;20034;-69
2023/09/19 04:50:45;;;;;;;;;;;;;;;19.12;72.77;100315.63;4227880;28;20038;-66
2023/09/19 04:52:50;;;;;;;;;;;;;;;19.08;72.61;100316.09;4229636;28;19949;-65
2023/09/19 04:54:52;;;;;;;;;;;;;;;19.06;72.70;100323.72;4229672;28;20002;-66
2023/09/19 04:56:54;;;;;;;;;;;;;;;19.04;72.54;100322.31;4230409;28;20034;-66
2023/09/19 04:58:58;;;;;;;;;;;;;;;19.03;72.53;100323.41;4230238;28;20022;-67
2023/09/19 05:01:02;;;;;;;;;;;;;;;19.03;72.63;100329.69;4229093;28;20445;-65
2023/09/19 05:03:06;;;;;;;;;;;;;;;19.03;72.26;100326.94;4227912;28;20386;-65
2023/09/19 05:05:10;;;;;;;;;;;;;;;19.00;72.12;100332.09;4228011;28;20046;-66
2023/09/19 05:07:12;;;;;;;;;;;;;;;18.97;71.89;100327.09;4237513;27;20101;-65
2023/09/19 05:09:15;;;;;;;;;;;;;;;18.95;71.67;100329.22;4228149;28;20018;-66
2023/09/19 05:11:18;;;;;;;;;;;;;;;18.95;71.40;100331.97;4227916;28;20023;-66
2023/09/19 05:13:20;;;;;;;;;;;;;;;18.93;71.16;100336.84;4229142;28;20026;-66
2023/09/19 05:15:22;;;;;;;;;;;;;;;18.90;71.46;100344.50;4227818;28;20022;-68
2023/09/19 05:17:24;;;;;;;;;;;;;;;18.89;71.21;100350.19;4228671;28;20018;-67
2023/09/19 05:19:27;;;;;;;;;;;;;;;18.86;70.95;100346.03;4226848;28;19974;-66
2023/09/19 05:21:30;;;;;;;;;;;;;;;18.83;70.97;100351.13;4227538;28;20082;-67
2023/09/19 05:23:32;;;;;;;;;;;;;;;18.82;70.88;100355.75;4228555;27;20027;-66
2023/09/19 05:25:37;;;;;;;;;;;;;;;18.82;70.96;100365.88;4228322;28;20019;-66
2023/09/19 05:27:40;;;;;;;;;;;;;;;18.80;70.85;100357.91;4227613;28;20011;-66
2023/09/19 05:29:42;;;;;;;;;;;;;;;18.78;70.42;100375.63;4227471;28;20018;-68
2023/09/19 05:31:44;;;;;;;;;;;;;;;18.73;70.64;100363.53;4222711;28;20031;-67
2023/09/19 05:33:46;;;;;;;;;;;;;;;18.74;70.50;100372.56;4221836;28;20027;-67
2023/09/19 05:35:47;;;;;;;;;;;;;;;18.72;70.50;100370.06;4226335;28;20058;-65
2023/09/19 05:37:52;;;;;;;;;;;;;;;18.73;70.55;100373.66;4225952;28;20030;-67
2023/09/19 05:39:54;;;;;;;;;;;;;;;18.72;70.13;100377.44;4228634;28;20022;-67
2023/09/19 05:41:57;;;;;;;;;;;;;;;18.71;69.88;100382.09;4228974;28;20020;-66
2023/09/19 05:43:59;;;;;;;;;;;;;;;18.69;69.96;100384.22;4229381;28;20022;-65
2023/09/19 05:46:01;;;;;;;;;;;;;;;18.68;69.71;100378.97;4229052;28;20453;-67
2023/09/19 05:48:08;;;;;;;;;;;;;;;18.65;69.59;100387.66;4228567;28;20058;-66
2023/09/19 05:50:10;;;;;;;;;;;;;;;18.63;69.41;100389.81;4229021;28;20022;-65
2023/09/19 05:52:12;;;;;;;;;;;;;;;18.61;69.58;100401.00;4228478;28;20023;-65
2023/09/19 05:54:17;;;;;;;;;;;;;;;18.58;69.24;100398.72;4226959;28;20539;-65
2023/09/19 05:56:19;;;;;;;;;;;;;;;18.57;69.26;100401.72;4228099;28;20018;-67
2023/09/19 05:58:21;;;;;;;;;;;;;;;18.54;69.07;100411.22;4228380;28;20051;-64
2023/09/19 06:00:24;;;;;;;;;;;;;;;18.53;69.29;100412.28;4227277;28;20430;-65
2023/09/19 06:02:26;;;;;;;;;;;;;;;18.51;69.10;100419.88;4226810;28;20026;-67
2023/09/19 06:04:30;;;;;;;;;;;;;;;18.50;69.04;100416.31;4228937;28;20014;-67
2023/09/19 06:06:33;;;;;;;;;;;;;;;18.49;69.20;100414.66;4227495;28;20030;-66
2023/09/19 06:08:35;;;;;;;;;;;;;;;18.49;68.92;100422.84;4229080;28;20012;-66
2023/09/19 06:10:39;;;;;;;;;;;;;;;18.49;69.00;100424.78;4229144;28;20038;-65
2023/09/19 06:12:40;;;;;;;;;;;;;;;18.48;68.91;100431.28;4226131;28;20282;-66
2023/09/19 06:14:42;;;;;;;;;;;;;;;18.46;68.96;100436.19;4228841;28;19931;-65
2023/09/19 06:16:44;;;;;;;;;;;;;;;18.46;68.88;100434.28;4228718;28;20440;-65
2023/09/19 06:18:46;;;;;;;;;;;;;;;18.45;68.65;100437.25;4228226;28;20026;-64
2023/09/19 06:20:48;;;;;;;;;;;;;;;18.45;68.78;100448.19;4228824;28;20364;-65
2023/09/19 06:22:49;;;;;;;;;;;;;;;18.40;68.57;100440.72;4226840;28;20458;-67
2023/09/19 06:24:51;;;;;;;;;;;;;;;18.41;68.22;100441.53;4228512;28;20019;-67
2023/09/19 06:26:55;;;;;;;;;;;;;;;18.41;68.57;100453.28;4228787;28;20011;-67
2023/09/19 06:28:57;;;;;;;;;;;;;;;18.42;68.54;100451.41;4228954;28;20437;-64
2023/09/19 06:31:00;;;;;;;;;;;;;;;18.41;68.35;100453.28;4227084;28;20065;-67
2023/09/19 06:33:03;;;;;;;;;;;;;;;18.43;68.30;100453.91;4228022;28;20018;-67
2023/09/19 06:35:07;;;;;;;;;;;;;;;18.43;67.95;100453.06;4227957;28;19931;-66
2023/09/19 06:37:10;;;;;;;;;;;;;;;18.41;67.71;100452.47;4228363;28;20458;-67
2023/09/19 06:39:12;;;;;;;;;;;;;;;18.42;67.86;100459.63;4227908;28;20014;-65
2023/09/19 06:41:14;;;;;;;;;;;;;;;18.40;67.77;100454.38;4226228;28;20174;-67
2023/09/19 06:43:18;;;;;;;;;;;;;;;18.42;67.69;100470.56;4227437;28;20023;-68
2023/09/19 06:45:19;;;;;;;;;;;;;;;18.43;67.73;100456.66;4227544;28;20473;-68
2023/09/19 06:47:22;;;;;;;;;;;;;;;18.45;67.63;100467.31;4229226;28;20454;-67
2023/09/19 06:49:24;;;;;;;;;;;;;;;18.44;67.40;100471.13;4227194;28;20433;-67
2023/09/19 06:51:26;;;;;;;;;;;;;;;18.46;67.53;100469.00;4228151;28;20338;-67
2023/09/19 06:53:31;;;;;;;;;;;;;;;18.46;67.38;100469.81;4227396;28;20458;-66
2023/09/19 06:55:32;;;;;;;;;;;;;;;18.51;67.58;100469.09;4228914;28;20014;-67
2023/09/19 06:57:34;;;;;;;;;;;;;;;18.52;67.41;100471.59;4228736;28;20034;-68
2023/09/19 06:59:38;;;;;;;;;;;;;;;18.53;67.62;100475.19;4227125;28;20401;-67
2023/09/19 07:01:41;;;;;;;;;;;;;;;18.56;67.21;100469.25;4226398;28;20027;-65
2023/09/19 07:03:45;;;;;;;;;;;;;;;18.57;67.17;100475.53;4228812;28;20361;-68
2023/09/19 07:05:46;;;;;;;;;;;;;;;18.60;67.26;100483.28;4227881;28;20022;-67
2023/09/19 07:07:48;;;;;;;;;;;;;;;18.61;67.29;100474.84;4228042;28;20014;-66
2023/09/19 07:09:51;;;;;;;;;;;;;;;18.64;67.39;100481.75;4226227;28;20453;-66
2023/09/19 07:11:53;;;;;;;;;;;;;;;18.66;67.23;100474.94;4226368;28;20444;-66
2023/09/19 07:13:55;;;;;;;;;;;;;;;18.67;66.78;100479.38;4226646;28;20010;-66
2023/09/19 07:15:59;;;;;;;;;;;;;;;18.68;66.40;100483.78;4226137;28;19966;-67
2023/09/19 07:18:01;;;;;;;;;;;;;;;18.70;66.51;100478.06;4228342;28;20018;-68
2023/09/19 07:20:08;;;;;;;;;;;;;;;18.71;66.44;100480.56;4228093;28;20026;-68
2023/09/19 07:22:10;;;;;;;;;;;;;;;18.77;66.73;100475.22;4227803;28;20362;-67
2023/09/19 07:24:13;;;;;;;;;;;;;;;18.81;66.83;100484.59;4225824;28;20031;-68
2023/09/19 07:26:15;;;;;;;;;;;;;;;18.84;66.61;100487.72;4227731;28;20145;-68
2023/09/19 07:28:16;;;;;;;;;;;;;;;18.88;66.69;100491.63;4228615;28;20542;-67
2023/09/19 07:30:18;;;;;;;;;;;;;;;18.94;66.05;100494.50;4227109;28;20022;-66
2023/09/19 07:32:21;;;;;;;;;;;;;;;18.98;65.66;100491.06;4226862;28;20022;-67
2023/09/19 07:34:24;;;;;;;;;;;;;;;19.03;65.55;100498.56;4225807;28;20466;-69
2023/09/19 07:36:26;;;;;;;;;;;;;;;19.09;65.65;100500.34;4228049;28;20010;-67
2023/09/19 07:38:28;;;;;;;;;;;;;;;19.15;65.35;100498.53;4226419;28;20022;-67
2023/09/19 07:40:30;;;;;;;;;;;;;;;19.19;65.10;100510.66;4227015;28;20035;-69
2023/09/19 07:42:32;;;;;;;;;;;;;;;19.23;64.74;100506.38;4227995;28;20023;-68
2023/09/19 07:44:36;;;;;;;;;;;;;;;19.23;63.61;100523.63;4228472;28;20014;-68
2023/09/19 07:46:38;;;;;;;;;;;;;;;19.24;62.40;100519.81;4227966;28;20021;-68
2023/09/19 07:48:44;;;;;;;;;;;;;;;19.25;62.10;100502.31;4227242;28;20469;-68
2023/09/19 07:50:46;;;;;;;;;;;;;;;19.28;61.88;100509.22;4227406;28;20313;-69
2023/09/19 07:52:50;;;;;;;;;;;;;;;19.32;61.54;100515.06;4227344;28;20364;-68
2023/09/19 07:54:53;;;;;;;;;;;;;;;19.35;61.14;100520.03;4226509;28;19963;-68
2023/09/19 07:56:55;;;;;;;;;;;;;;;19.36;60.90;100525.28;4227691;28;20374;-68
2023/09/19 07:58:59;;;;;;;;;;;;;;;19.38;60.26;100522.31;4227595;28;20011;-67
2023/09/19 08:01:04;;;;;;;;;;;;;;;19.40;59.83;100525.63;4226274;28;20015;-66
2023/09/19 08:03:08;;;;;;;;;;;;;;;19.43;59.88;100520.50;4227301;28;20073;-68
2023/09/19 08:05:15;;;;;;;;;;;;;;;19.45;60.27;100532.06;4227098;28;19963;-68
2023/09/19 08:07:16;;;;;;;;;;;;;;;19.48;59.94;100536.19;4227769;28;20018;-67
2023/09/19 08:09:20;;;;;;;;;;;;;;;19.51;59.99;100541.19;4228002;28;20600;-68
2023/09/19 08:11:24;;;;;;;;;;;;;;;19.54;59.09;100546.19;4217952;28;20027;-68
2023/09/19 08:13:26;;;;;;;;;;;;;;;19.57;59.32;100550.38;4227644;28;20015;-67
2023/09/19 08:15:28;;;;;;;;;;;;;;;19.57;58.97;100544.88;4227590;28;20018;-67
2023/09/19 08:17:34;;;;;;;;;;;;;;;19.57;58.51;100537.50;4226921;28;20023;-68
2023/09/19 08:19:36;;;;;;;;;;;;;;;19.59;58.41;100532.63;4226849;28;20014;-67
2023/09/19 08:21:40;;;;;;;;;;;;;;;19.59;58.14;100534.50;4228236;28;20014;-66
2023/09/19 08:23:43;;;;;;;;;;;;;;;19.61;58.18;100529.66;4231054;28;20011;-66
2023/09/19 08:25:45;;;;;;;;;;;;;;;19.66;58.94;100528.91;4221612;28;20015;-69
2023/09/19 08:27:48;;;;;;;;;;;;;;;19.71;58.99;100526.28;4230767;28;20380;-68
2023/09/19 08:29:51;;;;;;;;;;;;;;;19.73;57.98;100515.91;4230407;28;20019;-66
2023/09/19 08:31:53;;;;;;;;;;;;;;;19.77;58.41;100530.81;4229944;28;20045;-68
2023/09/19 08:33:55;;;;;;;;;;;;;;;19.77;57.39;100531.63;4229621;28;20019;-67
2023/09/19 08:35:57;;;;;;;;;;;;;;;19.80;57.92;100536.63;4230676;28;20429;-67
2023/09/19 08:38:03;;;;;;;;;;;;;;;19.81;56.64;100548.41;4229482;28;20309;-67
2023/09/19 08:40:09;;;;;;;;;;;;;;;19.82;56.29;100552.84;4230847;28;20014;-67
2023/09/19 08:42:11;;;;;;;;;;;;;;;19.83;56.76;100540.81;4230675;28;20031;-67
2023/09/19 08:44:13;;;;;;;;;;;;;;;19.85;56.29;100538.66;4230665;28;20010;-68
2023/09/19 08:46:16;;;;;;;;;;;;;;;19.87;56.11;100539.22;4230312;28;20034;-67
2023/09/19 08:48:24;;;;;;;;;;;;;;;19.89;55.73;100533.50;4230473;28;20027;-68
2023/09/19 08:50:28;;;;;;;;;;;;;;;19.92;55.71;100544.81;4230666;28;20027;-67
2023/09/19 08:52:34;;;;;;;;;;;;;;;20.01;56.20;100552.66;4230244;28;20035;-66
2023/09/19 08:54:39;;;;;;;;;;;;;;;20.09;56.53;100541.28;4230299;28;20006;-66
2023/09/19 08:56:42;;;;;;;;;;;;;;;20.19;56.94;100554.34;4229268;28;20018;-68
2023/09/19 08:58:46;;;;;;;;;;;;;;;20.29;56.54;100558.13;4229844;28;19931;-67
2023/09/19 09:00:49;;;;;;;;;;;;;;;20.43;56.55;100552.34;4229546;28;20018;-69
2023/09/19 09:02:51;;;;;;;;;;;;;;;20.52;55.32;100573.63;4229739;28;20023;-67
2023/09/19 09:04:53;;;;;;;;;;;;;;;20.59;54.82;100567.16;4230281;28;20022;-67
2023/09/19 09:06:55;;;;;;;;;;;;;;;20.62;53.30;100555.69;4230474;28;20015;-67
2023/09/19 09:08:57;;;;;;;;;;;;;;;20.66;54.46;100565.94;4230647;28;20026;-69
2023/09/19 09:11:03;;;;;;;;;;;;;;;20.69;54.89;100556.38;4229331;28;20117;-67
2023/09/19 09:13:06;;;;;;;;;;;;;;;20.71;53.76;100576.16;4228739;28;20046;-67
2023/09/19 09:15:11;;;;;;;;;;;;;;;20.68;52.16;100566.50;4222096;28;20022;-67
2023/09/19 09:17:13;;;;;;;;;;;;;;;20.69;52.42;100579.16;4230126;28;20450;-68
2023/09/19 09:19:23;;;;;;;;;;;;;;;20.68;52.91;100574.75;4228995;28;19924;-68
2023/09/19 09:21:26;;;;;;;;;;;;;;;20.65;53.27;100582.66;4229605;28;20462;-67
2023/09/19 09:23:29;;;;;;;;;;;;;;;20.64;53.17;100611.13;4229942;28;20022;-68
2023/09/19 09:25:54;;;;;;;;;;;;;;;20.60;53.22;100569.66;4230403;28;20023;-66
2023/09/19 09:28:01;;;;;;;;;;;;;;;20.60;53.74;100579.78;4230203;28;20836;-67
2023/09/19 09:30:04;;;;;;;;;;;;;;;20.59;53.42;100589.09;4228807;28;20445;-68
2023/09/19 09:32:18;;;;;;;;;;;;;;;20.57;53.34;100580.28;4228581;28;20031;-68
2023/09/19 09:34:21;;;;;;;;;;;;;;;20.58;53.66;100577.31;4230135;28;20050;-68
2023/09/19 09:36:34;;;;;;;;;;;;;;;20.60;54.36;100585.28;4230437;28;20357;-69
2023/09/19 09:38:45;;;;;;;;;;;;;;;20.64;54.34;100581.84;4228591;28;20430;-67
2023/09/19 09:40:47;;;;;;;;;;;;;;;20.68;54.46;100593.94;4227606;28;19967;-68
2023/09/19 09:42:52;;;;;;;;;;;;;;;20.70;54.12;100589.06;4229354;28;20400;-69
2023/09/19 09:45:01;;;;;;;;;;;;;;;20.74;53.98;100599.56;4229842;28;20050;-67
2023/09/19 09:49:35;;;;;;;;;;;;;;;20.77;53.20;100586.16;4185497;28;20008;-67
2023/09/19 09:51:39;;;;;;;;;;;;;;;20.77;53.00;100599.88;4206914;28;20014;-68
2023/09/19 09:53:41;;;;;;;;;;;;;;;20.75;51.96;100582.81;4229005;28;19995;-68
2023/09/19 09:55:56;;;;;;;;;;;;;;;20.76;52.70;100583.66;4228668;28;20019;-68
2023/09/19 09:58:18;;;;;;;;;;;;;;;20.78;53.33;100589.72;4228989;28;20019;-68
2023/09/19 10:00:21;;;;;;;;;;;;;;;20.80;51.87;100593.91;4228566;28;20035;-68
2023/09/19 10:02:28;;;;;;;;;;;;;;;20.78;51.98;100593.28;4228298;28;19924;-67
2023/09/19 10:04:36;;;;;;;;;;;;;;;20.78;51.79;100592.47;4230160;28;20026;-68
2023/09/19 10:06:47;;;;;;;;;;;;;;;20.77;51.78;100593.53;4220050;28;20015;-69
2023/09/19 10:09:01;;;;;;;;;;;;;;;20.78;52.44;100590.53;4228077;28;20014;-68
2023/09/19 10:11:14;;;;;;;;;;;;;;;20.79;51.73;100603.19;4228507;28;20570;-70
2023/09/19 10:13:18;;;;;;;;;;;;;;;20.78;52.20;100609.75;4228868;28;20014;-68
2023/09/19 10:15:21;;;;;;;;;;;;;;;20.78;51.79;100609.75;4228997;28;20023;-67
2023/09/19 10:17:24;;;;;;;;;;;;;;;20.79;51.76;100610.59;4227867;28;20014;-67
2023/09/19 10:19:30;;;;;;;;;;;;;;;20.79;51.57;100616.09;4226129;28;20022;-67
2023/09/19 10:21:32;;;;;;;;;;;;;;;20.77;50.86;100610.84;4228349;28;20027;-67
2023/09/19 10:23:34;;;;;;;;;;;;;;;20.76;51.27;100606.44;4229533;28;19957;-67
2023/09/19 10:25:36;;;;;;;;;;;;;;;20.79;51.26;100599.63;4228873;28;20026;-66
2023/09/19 10:27:38;;;;;;;;;;;;;;;20.82;50.68;100593.66;4228771;28;20042;-68
2023/09/19 10:29:40;;;;;;;;;;;;;;;20.88;51.13;100617.34;4228124;28;20018;-69
2023/09/19 10:31:47;;;;;;;;;;;;;;;20.91;50.33;100594.03;4227171;28;20445;-68
2023/09/19 10:33:49;;;;;;;;;;;;;;;20.94;50.06;100604.53;4227350;28;20023;-68
2023/09/19 10:35:51;;;;;;;;;;;;;;;20.98;50.75;100600.22;4229046;28;20015;-68